createdAt,value
2017-11-24T00:00:03.563Z,2.30
2017-11-24T00:02:30.690Z,2.70
2017-11-24T00:04:58.048Z,2.50
2017-11-24T00:07:25.432Z,1.97
2017-11-24T00:09:52.761Z,2.73
2017-11-24T00:12:20.097Z,2.70
2017-11-24T00:14:47.565Z,2.50
2017-11-24T00:17:14.957Z,2.63
2017-11-24T00:19:42.266Z,2.60
2017-11-24T00:22:09.637Z,2.40
2017-11-24T00:24:37.005Z,2.47
2017-11-24T00:27:04.332Z,2.13
2017-11-24T00:29:31.757Z,2.67
2017-11-24T00:31:59.072Z,2.57
2017-11-24T00:34:26.424Z,2.40
2017-11-24T00:36:53.747Z,2.27
2017-11-24T00:39:21.074Z,2.50
2017-11-24T00:41:48.429Z,3.27
2017-11-24T00:44:15.784Z,2.50
2017-11-24T00:46:43.158Z,2.70
2017-11-24T00:49:10.500Z,2.63
2017-11-24T00:51:37.850Z,2.73
2017-11-24T00:54:05.180Z,2.50
2017-11-24T00:56:32.588Z,2.63
2017-11-24T00:58:59.933Z,2.33
2017-11-24T01:01:27.287Z,2.20
2017-11-24T01:03:54.622Z,3.47
2017-11-24T01:06:22.131Z,2.30
2017-11-24T01:08:49.523Z,2.93
2017-11-24T01:11:16.855Z,2.17
2017-11-24T01:13:44.214Z,2.60
2017-11-24T01:16:11.572Z,2.27
2017-11-24T01:18:38.959Z,2.80
2017-11-24T01:21:06.289Z,2.43
2017-11-24T01:23:33.623Z,2.20
2017-11-24T01:26:01.002Z,2.33
2017-11-24T01:28:28.501Z,2.47
2017-11-24T01:30:55.793Z,2.67
2017-11-24T01:33:23.144Z,2.60
2017-11-24T01:35:50.528Z,2.40
2017-11-24T01:38:17.887Z,2.33
2017-11-24T01:40:45.280Z,2.50
2017-11-24T01:43:12.598Z,2.73
2017-11-24T01:45:40.128Z,2.30
2017-11-24T01:48:07.454Z,2.70
2017-11-24T01:50:34.800Z,2.30
2017-11-24T01:53:02.098Z,2.60
2017-11-24T01:55:29.546Z,2.30
2017-11-24T01:57:56.872Z,2.60
2017-11-24T02:00:24.322Z,2.47
2017-11-24T02:02:51.619Z,2.53
2017-11-24T02:05:18.951Z,2.40
2017-11-24T02:07:46.307Z,2.20
2017-11-24T02:10:13.662Z,2.73
2017-11-24T02:12:41.009Z,2.30
2017-11-24T02:15:08.332Z,2.70
2017-11-24T02:17:35.696Z,2.47
2017-11-24T02:20:03.028Z,2.37
2017-11-24T02:22:30.376Z,2.50
2017-11-24T02:24:57.854Z,2.37
2017-11-24T02:27:25.321Z,2.50
2017-11-24T02:29:52.666Z,2.10
2017-11-24T02:32:20.003Z,2.20
2017-11-24T02:34:47.390Z,2.40
2017-11-24T02:37:14.842Z,2.53
2017-11-24T02:39:42.188Z,3.20
2017-11-24T02:42:09.721Z,2.20
2017-11-24T02:44:37.050Z,2.43
2017-11-24T02:47:04.410Z,2.80
2017-11-24T02:49:31.793Z,2.63
2017-11-24T02:51:59.228Z,2.30
2017-11-24T02:54:26.627Z,2.40
2017-11-24T02:56:53.952Z,2.63
2017-11-24T02:59:21.309Z,2.30
2017-11-24T03:01:48.637Z,2.10
2017-11-24T03:04:15.960Z,2.77
2017-11-24T03:06:43.317Z,2.27
2017-11-24T03:09:10.659Z,2.50
2017-11-24T03:11:38.103Z,2.60
2017-11-24T03:14:05.438Z,2.73
2017-11-24T03:16:32.807Z,2.33
2017-11-24T03:19:00.129Z,2.33
2017-11-24T03:21:27.500Z,2.17
2017-11-24T03:23:54.832Z,2.40
2017-11-24T03:26:22.213Z,2.53
2017-11-24T03:28:49.701Z,2.10
2017-11-24T03:31:17.029Z,2.30
2017-11-24T03:33:44.374Z,2.27
2017-11-24T03:36:11.696Z,1.97
2017-11-24T03:38:39.050Z,2.50
2017-11-24T03:41:06.420Z,2.47
2017-11-24T03:43:33.785Z,2.77
2017-11-24T03:46:01.172Z,2.60
2017-11-24T03:48:28.506Z,2.23
2017-11-24T03:50:55.934Z,2.37
2017-11-24T03:53:23.344Z,2.53
2017-11-24T03:55:50.676Z,2.63
2017-11-24T03:58:18.062Z,2.30
2017-11-24T04:00:45.468Z,2.37
2017-11-24T04:03:12.832Z,2.53
2017-11-24T04:05:40.298Z,2.43
2017-11-24T04:08:07.620Z,2.30
2017-11-24T04:10:34.986Z,2.63
2017-11-24T04:13:02.322Z,2.30
2017-11-24T04:15:29.718Z,2.23
2017-11-24T04:17:57.046Z,2.43
2017-11-24T04:20:24.423Z,2.20
2017-11-24T04:22:51.788Z,2.80
2017-11-24T04:25:19.105Z,2.43
2017-11-24T04:27:46.462Z,2.67
2017-11-24T04:30:13.814Z,2.13
2017-11-24T04:32:41.154Z,2.77
2017-11-24T04:35:08.511Z,2.20
2017-11-24T04:37:35.882Z,2.23
2017-11-24T04:40:03.225Z,2.40
2017-11-24T04:42:30.565Z,2.40
2017-11-24T04:44:57.932Z,2.03
2017-11-24T04:47:25.287Z,2.17
2017-11-24T04:49:52.637Z,2.33
2017-11-24T04:52:20.051Z,2.20
2017-11-24T04:54:47.513Z,2.50
2017-11-24T04:57:14.851Z,2.07
2017-11-24T04:59:42.264Z,2.43
2017-11-24T05:02:09.767Z,2.50
2017-11-24T05:04:37.093Z,2.43
2017-11-24T05:07:04.450Z,2.80
2017-11-24T05:09:31.908Z,2.80
2017-11-24T05:11:59.228Z,2.47
2017-11-24T05:14:26.661Z,2.33
2017-11-24T05:16:54.056Z,2.60
2017-11-24T05:19:21.405Z,2.60
2017-11-24T05:21:48.762Z,2.53
2017-11-24T05:24:16.091Z,2.67
2017-11-24T05:26:43.437Z,2.30
2017-11-24T05:29:10.774Z,2.83
2017-11-24T05:31:38.313Z,2.60
2017-11-24T05:34:05.635Z,2.53
2017-11-24T05:36:33.197Z,3.13
2017-11-24T05:39:00.524Z,3.33
2017-11-24T05:41:27.908Z,2.60
2017-11-24T05:43:55.270Z,2.57
2017-11-24T05:46:22.617Z,2.90
2017-11-24T05:48:49.991Z,2.63
2017-11-24T05:51:17.391Z,2.33
2017-11-24T05:53:44.688Z,2.80
2017-11-24T05:56:12.037Z,2.70
2017-11-24T05:58:39.401Z,3.10
2017-11-24T06:01:06.736Z,2.20
2017-11-24T06:03:34.117Z,2.20
2017-11-24T06:06:01.452Z,2.67
2017-11-24T06:08:28.887Z,2.43
2017-11-24T06:10:56.225Z,3.30
2017-11-24T06:13:23.607Z,2.63
2017-11-24T06:15:50.953Z,2.50
2017-11-24T06:18:18.317Z,2.40
2017-11-24T06:20:45.784Z,2.80
2017-11-24T06:23:13.098Z,2.80
2017-11-24T06:25:40.485Z,2.60
2017-11-24T06:28:07.840Z,3.43
2017-11-24T06:30:35.177Z,3.13
2017-11-24T06:33:02.529Z,3.63
2017-11-24T06:35:29.882Z,3.40
2017-11-24T06:37:57.248Z,3.20
2017-11-24T06:40:24.687Z,3.40
2017-11-24T06:42:52.079Z,3.60
2017-11-24T06:45:19.373Z,3.20
2017-11-24T06:47:46.710Z,3.13
2017-11-24T06:50:14.077Z,3.23
2017-11-24T06:52:41.435Z,3.30
2017-11-24T06:55:08.805Z,3.30
2017-11-24T06:57:36.149Z,3.10
2017-11-24T07:00:03.502Z,3.60
2017-11-24T07:02:30.835Z,3.30
2017-11-24T07:04:58.218Z,3.20
2017-11-24T07:07:25.588Z,3.30
2017-11-24T07:09:52.950Z,3.00
2017-11-24T07:12:20.289Z,3.03
2017-11-24T07:14:47.624Z,3.43
2017-11-24T07:17:14.981Z,3.27
2017-11-24T07:19:42.465Z,3.10
2017-11-24T07:22:09.797Z,2.93
2017-11-24T07:24:37.167Z,2.70
2017-11-24T07:27:04.631Z,2.90
2017-11-24T12:20:05.440Z,3.53
2017-11-24T12:22:32.789Z,3.50
2017-11-24T12:25:00.166Z,3.60
2017-11-24T12:27:27.517Z,4.17
2017-11-24T12:29:54.889Z,3.30
2017-11-24T12:32:22.377Z,3.33
2017-11-24T12:34:49.740Z,3.40
2017-11-24T12:37:17.156Z,3.70
2017-11-24T12:39:44.577Z,3.70
2017-11-24T12:42:12.089Z,3.43
2017-11-24T12:44:39.438Z,3.77
2017-11-24T12:47:06.797Z,3.60
2017-11-24T12:49:34.160Z,3.63
2017-11-24T12:52:01.522Z,4.43
2017-11-24T12:54:28.889Z,3.47
2017-11-24T12:56:56.269Z,3.20
2017-11-24T12:59:23.620Z,2.70
2017-11-24T13:01:50.966Z,3.00
2017-11-24T13:04:18.324Z,3.80
2017-11-24T13:06:45.650Z,3.30
2017-11-24T13:09:12.991Z,3.30
2017-11-24T13:11:40.486Z,3.13
2017-11-24T13:14:07.819Z,3.50
2017-11-24T13:16:35.193Z,3.30
2017-11-24T13:19:02.566Z,3.10
2017-11-24T13:21:29.946Z,3.03
2017-11-24T13:23:57.409Z,3.27
2017-11-24T13:26:24.797Z,3.10
2017-11-24T13:28:52.153Z,3.47
2017-11-24T13:31:19.516Z,3.40
2017-11-24T13:33:46.883Z,3.23
2017-11-24T13:36:14.224Z,3.97
2017-11-24T13:38:41.569Z,2.90
2017-11-24T13:41:08.961Z,3.40
2017-11-24T13:43:36.315Z,3.50
2017-11-24T13:46:03.726Z,3.13
2017-11-24T13:48:31.349Z,3.30
2017-11-24T13:50:58.778Z,3.50
2017-11-24T13:53:26.617Z,3.30
2017-11-24T13:55:53.993Z,3.60
2017-11-24T13:58:21.434Z,3.33
2017-11-24T14:00:48.796Z,3.30
2017-11-24T14:03:16.233Z,3.60
2017-11-24T14:05:43.634Z,3.10
2017-11-24T14:08:11.090Z,3.53
2017-11-24T14:10:38.499Z,3.53
2017-11-24T14:13:05.921Z,3.00
2017-11-24T14:15:33.268Z,2.87
2017-11-24T14:18:00.600Z,2.93
2017-11-24T14:20:27.987Z,3.90
2017-11-24T14:22:55.327Z,2.90
2017-11-24T14:25:22.707Z,3.50
2017-11-24T14:27:50.013Z,2.80
2017-11-24T14:30:17.371Z,3.73
2017-11-24T14:32:44.751Z,3.07
2017-11-24T14:35:12.129Z,3.60
2017-11-24T14:37:39.530Z,3.30
2017-11-24T14:40:06.873Z,3.33
2017-11-24T14:42:34.395Z,3.30
2017-11-24T14:45:02.501Z,3.13
2017-11-24T14:47:30.549Z,3.37
2017-11-24T14:49:58.086Z,3.40
2017-11-24T14:52:25.496Z,2.50
2017-11-24T14:54:52.840Z,3.27
2017-11-24T14:57:20.214Z,3.80
2017-11-24T14:59:47.554Z,3.43
2017-11-24T15:02:14.950Z,3.33
2017-11-24T15:04:42.494Z,2.97
2017-11-24T15:07:09.880Z,3.23
2017-11-24T15:09:37.275Z,2.63
2017-11-24T15:12:04.599Z,3.03
2017-11-24T15:14:32.035Z,3.23
2017-11-24T15:16:59.369Z,3.10
2017-11-24T15:19:26.826Z,2.87
2017-11-24T15:21:54.189Z,2.80
2017-11-24T15:24:21.708Z,3.20
2017-11-24T15:26:49.167Z,2.83
2017-11-24T15:29:16.782Z,3.07
2017-11-24T15:31:44.128Z,3.10
2017-11-24T15:34:11.489Z,2.93
2017-11-24T15:36:38.848Z,3.10
2017-11-24T15:39:06.268Z,3.23
2017-11-24T15:41:33.756Z,3.30
2017-11-24T15:44:01.160Z,2.83
2017-11-24T15:46:28.609Z,3.37
2017-11-24T15:48:55.997Z,2.90
2017-11-24T15:51:23.360Z,3.43
2017-11-24T15:53:50.959Z,3.00
2017-11-24T15:56:18.344Z,3.20
2017-11-24T15:58:45.933Z,3.10
2017-11-24T16:01:13.255Z,3.10
2017-11-24T16:03:40.820Z,3.17
2017-11-24T16:06:08.274Z,2.97
2017-11-24T16:08:35.654Z,2.90
2017-11-24T16:11:03.020Z,3.03
2017-11-24T16:13:30.436Z,3.60
2017-11-24T16:15:57.807Z,2.83
2017-11-24T16:18:25.176Z,2.90
2017-11-24T16:20:52.544Z,3.10
2017-11-24T16:23:19.939Z,3.10
2017-11-24T16:25:47.308Z,2.83
2017-11-24T16:28:14.692Z,2.50
2017-11-24T16:30:42.968Z,2.77
2017-11-24T16:33:10.341Z,2.80
2017-11-24T16:35:37.719Z,2.90
2017-11-24T16:38:05.149Z,2.90
2017-11-24T16:40:33.036Z,2.77
2017-11-24T16:43:00.395Z,3.07
2017-11-24T16:45:27.781Z,3.10
2017-11-24T16:47:55.143Z,3.10
2017-11-24T16:50:22.659Z,2.90
2017-11-24T16:52:50.081Z,2.73
2017-11-24T16:55:17.491Z,2.50
2017-11-24T16:57:44.896Z,3.20
2017-11-24T17:00:12.291Z,2.67
2017-11-24T17:02:39.789Z,2.70
2017-11-24T17:05:07.124Z,3.00
2017-11-24T17:07:34.508Z,2.93
2017-11-24T17:10:01.849Z,2.57
2017-11-24T17:12:29.198Z,2.80
2017-11-24T17:14:56.549Z,2.43
2017-11-24T17:17:23.957Z,2.63
2017-11-24T17:19:51.344Z,2.60
2017-11-24T17:22:18.732Z,2.40
2017-11-24T17:24:46.188Z,2.70
2017-11-24T17:27:13.573Z,2.57
2017-11-24T17:29:40.945Z,2.80
2017-11-24T17:32:08.402Z,2.70
2017-11-24T17:34:35.789Z,2.60
2017-11-24T17:37:03.152Z,2.70
2017-11-24T17:39:30.516Z,2.80
2017-11-24T17:41:57.856Z,2.90
2017-11-24T17:44:25.190Z,3.03
2017-11-24T17:46:52.577Z,2.20
2017-11-24T17:49:19.904Z,2.70
2017-11-24T17:51:47.292Z,2.13
2017-11-24T17:54:14.751Z,3.03
2017-11-24T17:56:42.081Z,2.97
2017-11-24T17:59:09.408Z,2.20
2017-11-24T18:01:36.840Z,2.10
2017-11-24T18:04:04.306Z,2.20
2017-11-24T18:06:31.664Z,2.43
2017-11-24T18:08:59.002Z,2.70
2017-11-24T18:11:26.448Z,2.77
2017-11-24T18:13:53.809Z,2.47
2017-11-24T18:16:21.152Z,2.87
2017-11-24T18:18:48.584Z,2.93
2017-11-24T18:21:15.935Z,2.30
2017-11-24T18:23:43.344Z,2.70
2017-11-24T18:26:10.720Z,2.30
2017-11-24T18:28:38.087Z,2.53
2017-11-24T18:31:05.464Z,2.50
2017-11-24T18:33:33.327Z,2.70
2017-11-24T18:36:00.706Z,3.03
2017-11-24T18:38:28.078Z,2.40
2017-11-24T18:40:55.381Z,2.83
2017-11-24T18:43:22.746Z,2.43
2017-11-24T18:45:50.089Z,2.70
2017-11-24T18:48:17.449Z,3.03
2017-11-24T18:50:44.803Z,3.10
2017-11-24T18:53:12.186Z,2.20
2017-11-24T18:55:39.549Z,2.40
2017-11-24T18:58:06.928Z,2.60
2017-11-24T19:00:34.335Z,2.70
2017-11-24T19:03:01.681Z,2.17
2017-11-24T19:05:29.026Z,2.47
2017-11-24T19:07:56.410Z,2.70
2017-11-24T19:10:23.720Z,2.47
2017-11-24T19:12:51.128Z,2.80
2017-11-24T19:15:18.493Z,2.67
2017-11-24T19:17:45.878Z,2.60
2017-11-24T19:20:13.324Z,2.93
2017-11-24T19:22:40.719Z,2.57
2017-11-24T19:25:08.091Z,2.83
2017-11-24T19:27:35.458Z,2.40
2017-11-24T19:30:02.849Z,2.20
2017-11-24T19:32:30.259Z,2.40
2017-11-24T19:34:57.598Z,2.40
2017-11-24T19:37:24.936Z,2.80
2017-11-24T19:39:52.437Z,2.50
2017-11-24T19:42:19.794Z,2.40
2017-11-24T19:44:47.309Z,2.90
2017-11-24T19:47:14.697Z,2.20
2017-11-24T19:49:42.093Z,3.40
2017-11-24T19:52:09.469Z,2.20
2017-11-24T19:54:36.878Z,2.17
2017-11-24T19:57:04.251Z,2.30
2017-11-24T19:59:31.598Z,1.80
2017-11-24T20:01:58.964Z,2.23
2017-11-24T20:04:26.334Z,2.40
2017-11-24T20:06:53.727Z,2.67
2017-11-24T20:09:21.203Z,2.30
2017-11-24T20:11:48.574Z,2.50
2017-11-24T20:14:15.942Z,2.77
2017-11-24T20:16:43.310Z,2.37
2017-11-24T20:19:10.674Z,2.23
2017-11-24T20:21:38.093Z,1.97
2017-11-24T20:24:05.742Z,2.37
2017-11-24T20:26:33.076Z,2.80
2017-11-24T20:29:00.557Z,2.10
2017-11-24T20:31:28.046Z,2.37
2017-11-24T20:33:55.437Z,2.00
2017-11-24T20:36:22.865Z,2.60
2017-11-24T20:38:50.233Z,2.20
2017-11-24T20:41:17.767Z,2.27
2017-11-24T20:43:45.109Z,2.67
2017-11-24T20:46:12.531Z,2.40
2017-11-24T20:48:39.919Z,2.30
2017-11-24T20:51:07.328Z,2.17
2017-11-24T20:53:34.739Z,2.23
2017-11-24T20:56:02.165Z,2.50
2017-11-24T20:58:29.610Z,2.00
2017-11-24T21:00:57.178Z,2.23
2017-11-24T21:03:24.640Z,2.50
2017-11-24T21:05:51.972Z,5.10
2017-11-24T21:08:19.352Z,6.53
2017-11-24T21:10:46.714Z,7.50
2017-11-24T21:13:14.120Z,5.17
2017-11-24T21:15:41.468Z,4.47
2017-11-24T21:18:08.865Z,3.50
2017-11-24T21:20:36.250Z,3.20
2017-11-24T21:23:03.605Z,3.53
2017-11-24T21:25:31.448Z,3.47
2017-11-24T21:27:58.819Z,3.33
2017-11-24T21:30:26.279Z,3.00
2017-11-24T21:32:53.602Z,2.80
2017-11-24T21:35:21.545Z,2.60
2017-11-24T21:37:48.933Z,2.30
2017-11-24T21:40:16.410Z,2.43
2017-11-24T21:42:43.789Z,3.23
2017-11-24T21:45:11.337Z,2.80
2017-11-24T21:47:38.669Z,2.70
2017-11-24T21:50:06.034Z,2.80
2017-11-24T21:52:33.488Z,1.80
2017-11-24T21:55:00.834Z,2.67
2017-11-24T21:57:28.208Z,2.50
2017-11-24T21:59:55.541Z,2.43
2017-11-24T22:02:22.898Z,2.30
2017-11-24T22:04:50.283Z,2.80
2017-11-24T22:07:17.665Z,2.10
2017-11-24T22:09:45.034Z,2.63
2017-11-24T22:12:12.404Z,2.40
2017-11-24T22:14:39.749Z,2.17
2017-11-24T22:17:07.102Z,2.00
2017-11-24T22:19:34.652Z,2.10
2017-11-24T22:22:02.109Z,2.43
2017-11-24T22:24:29.474Z,2.40
2017-11-24T22:26:56.819Z,2.50
2017-11-24T22:29:24.203Z,2.37
2017-11-24T22:31:51.537Z,2.43
2017-11-24T22:34:18.902Z,2.23
2017-11-24T22:36:46.257Z,2.10
2017-11-24T22:39:13.650Z,2.30
2017-11-24T22:41:40.974Z,2.03
2017-11-24T22:44:08.349Z,2.07
2017-11-24T22:46:35.690Z,2.10
2017-11-24T22:49:03.058Z,2.17
2017-11-24T22:51:30.426Z,2.20
2017-11-24T22:53:57.825Z,2.10
2017-11-24T22:56:25.194Z,2.10
2017-11-24T22:58:52.547Z,2.07
2017-11-24T23:01:19.928Z,1.73
2017-11-24T23:03:47.251Z,2.10
2017-11-24T23:06:14.635Z,2.57
2017-11-24T23:08:42.014Z,2.30
2017-11-24T23:11:09.367Z,2.37
2017-11-24T23:13:36.697Z,2.07
2017-11-24T23:16:04.087Z,1.93
2017-11-24T23:18:31.427Z,1.70
2017-11-24T23:20:58.784Z,2.50
2017-11-24T23:23:26.101Z,1.77
2017-11-24T23:25:53.480Z,2.40
2017-11-24T23:28:20.836Z,2.00
2017-11-24T23:30:48.187Z,2.30
2017-11-24T23:33:15.552Z,2.00
2017-11-24T23:35:42.883Z,2.20
2017-11-24T23:38:10.252Z,1.73
2017-11-24T23:40:37.609Z,1.77
2017-11-24T23:43:04.971Z,2.17
2017-11-24T23:45:32.339Z,2.27
2017-11-24T23:47:59.808Z,2.00
2017-11-24T23:50:27.122Z,2.17
2017-11-24T23:52:54.484Z,2.03
2017-11-24T23:55:21.847Z,2.00
2017-11-24T23:57:49.391Z,2.20
